createdAt,value
2022-10-28T00:05:03.966Z,13.40
2022-10-28T00:13:09.276Z,14.05
2022-10-28T00:21:20.413Z,17.70
2022-10-28T00:29:26.263Z,15.52
2022-10-28T00:37:34.106Z,17.60
2022-10-28T00:45:39.434Z,14.48
2022-10-28T00:53:49.010Z,21.10
2022-10-28T01:01:54.593Z,17.58
2022-10-28T01:10:02.664Z,17.50
2022-10-28T01:18:22.894Z,12.45
2022-10-28T01:26:53.697Z,14.25
2022-10-28T01:35:13.226Z,13.57
2022-10-28T01:43:24.575Z,13.13
2022-10-28T01:51:35.322Z,13.38
2022-10-28T01:59:42.690Z,11.60
2022-10-28T02:07:52.533Z,9.35
2022-10-28T02:16:07.489Z,17.83
2022-10-28T02:24:22.816Z,14.43
2022-10-28T02:32:33.022Z,14.38
2022-10-28T02:40:42.589Z,17.83
2022-10-28T02:48:51.329Z,15.63
2022-10-28T02:57:05.187Z,15.10
2022-10-28T03:05:11.412Z,15.65
2022-10-28T03:13:19.354Z,15.00
2022-10-28T03:21:24.763Z,13.85
2022-10-28T03:29:32.682Z,18.20
2022-10-28T03:37:37.980Z,16.55
2022-10-28T03:45:46.188Z,14.10
2022-10-28T03:53:51.526Z,19.83
2022-10-28T04:01:59.527Z,16.50
2022-10-28T04:10:04.922Z,19.10
2022-10-28T04:18:13.002Z,21.02
2022-10-28T04:26:18.344Z,16.20
2022-10-28T04:34:26.317Z,20.08
2022-10-28T04:42:31.653Z,17.33
2022-10-28T04:50:40.478Z,14.60
2022-10-28T04:58:50.368Z,21.25
2022-10-28T05:06:58.233Z,14.80
2022-10-28T05:15:03.534Z,14.18
2022-10-28T05:23:11.512Z,17.83
2022-10-28T05:31:16.846Z,18.42
2022-10-28T05:39:24.702Z,16.95
2022-10-28T05:47:29.995Z,18.77
2022-10-28T05:55:38.215Z,15.95
2022-10-28T06:03:43.594Z,17.48
2022-10-28T06:11:50.300Z,14.00
2022-10-28T06:19:55.754Z,13.20
2022-10-28T06:28:06.977Z,17.13
2022-10-28T06:36:15.620Z,17.90
2022-10-28T06:44:23.880Z,13.60
2022-10-28T06:52:30.632Z,24.88
2022-10-28T07:00:38.531Z,20.17
2022-10-28T07:08:43.797Z,18.00
2022-10-28T07:16:51.631Z,17.70
2022-10-28T07:24:56.866Z,16.00
2022-10-28T07:33:04.761Z,20.30
2022-10-28T07:41:11.708Z,20.70
2022-10-28T07:49:20.452Z,18.33
2022-10-28T07:57:25.783Z,23.45
2022-10-28T08:05:33.761Z,16.58
2022-10-28T08:13:40.364Z,18.10
2022-10-28T08:21:48.304Z,12.45
2022-10-28T08:29:54.184Z,12.65
2022-10-28T08:38:02.078Z,10.25
2022-10-28T08:46:15.059Z,12.95
2022-10-28T08:54:26.577Z,9.60
2022-10-28T09:02:36.085Z,9.97
2022-10-28T09:11:04.263Z,11.00
2022-10-28T09:19:18.848Z,14.30
2022-10-28T09:27:55.469Z,15.27
2022-10-28T09:36:02.273Z,14.32
2022-10-28T09:44:18.687Z,14.63
2022-10-28T09:52:28.021Z,13.05
2022-10-28T10:00:36.539Z,12.30
2022-10-28T10:08:43.074Z,14.98
2022-10-28T10:17:16.346Z,15.32
2022-10-28T10:25:30.036Z,14.32
2022-10-28T10:33:39.871Z,17.33
2022-10-28T10:41:46.833Z,14.85
2022-10-28T10:49:56.484Z,13.77
2022-10-28T10:58:02.651Z,12.02
2022-10-28T11:06:24.018Z,10.52
2022-10-28T11:14:32.525Z,6.40
2022-10-28T11:22:50.521Z,8.32
2022-10-28T11:39:23.525Z,10.43
2022-10-28T11:47:50.432Z,9.40
2022-10-28T11:56:07.893Z,10.82
2022-10-28T12:04:35.977Z,10.48
2022-10-28T12:12:55.286Z,8.75
2022-10-28T12:21:05.259Z,7.63
2022-10-28T12:29:20.752Z,9.07
2022-10-28T12:37:28.836Z,10.10
2022-10-28T12:45:36.914Z,8.45
2022-10-28T12:53:47.267Z,6.82
2022-10-28T13:01:55.872Z,8.75
2022-10-28T13:10:13.987Z,12.23
2022-10-28T13:18:56.072Z,8.73
2022-10-28T13:27:04.792Z,6.90
2022-10-28T13:35:26.760Z,5.97
2022-10-28T13:44:00.380Z,10.82
2022-10-28T13:52:22.867Z,9.90
2022-10-28T14:00:40.856Z,5.83
2022-10-28T14:08:48.768Z,8.90
2022-10-28T14:16:54.476Z,9.40
2022-10-28T14:25:02.555Z,8.35
2022-10-28T14:33:24.186Z,8.32
2022-10-28T14:41:48.450Z,12.57
2022-10-28T14:50:02.388Z,13.55
2022-10-28T14:58:31.064Z,12.40
2022-10-28T15:06:39.747Z,13.10
2022-10-28T15:14:50.939Z,10.35
2022-10-28T15:22:57.564Z,10.60
2022-10-28T15:31:05.672Z,17.50
2022-10-28T15:39:19.058Z,19.25
2022-10-28T16:04:05.612Z,23.48
2022-10-28T16:12:18.225Z,29.85
2022-10-28T16:20:30.424Z,24.97
2022-10-28T16:28:37.949Z,33.42
2022-10-28T16:36:45.939Z,37.78
2022-10-28T16:44:51.843Z,29.25
2022-10-28T16:52:59.683Z,31.20
2022-10-28T17:01:05.048Z,30.27
2022-10-28T17:09:12.973Z,35.00
2022-10-28T17:17:18.487Z,32.42
2022-10-28T17:25:26.549Z,34.50
2022-10-28T17:33:31.839Z,40.28
2022-10-28T17:41:39.976Z,40.80
2022-10-28T17:49:45.274Z,50.80
2022-10-28T17:57:53.389Z,38.45
2022-10-28T18:05:59.365Z,47.13
2022-10-28T18:14:07.749Z,42.53
2022-10-28T18:22:13.120Z,36.90
2022-10-28T18:30:21.112Z,41.03
2022-10-28T18:38:26.418Z,35.78
2022-10-28T18:46:37.662Z,40.35
2022-10-28T18:54:42.945Z,32.75
2022-10-28T19:02:50.958Z,35.58
2022-10-28T19:10:58.495Z,38.97
2022-10-28T19:19:07.945Z,46.90
2022-10-28T19:27:13.345Z,47.90
2022-10-28T19:35:21.248Z,43.88
2022-10-28T19:43:26.479Z,47.13
2022-10-28T19:51:36.801Z,41.50
2022-10-28T19:59:42.055Z,111.03
2022-10-28T20:07:49.955Z,75.35
2022-10-28T20:15:55.249Z,72.85
2022-10-28T20:24:03.506Z,53.97
2022-10-28T20:32:08.857Z,51.08
2022-10-28T20:40:17.065Z,50.53
2022-10-28T20:48:22.373Z,47.05
2022-10-28T20:56:31.677Z,41.30
2022-10-28T21:04:37.605Z,36.72
2022-10-28T21:12:45.643Z,38.08
2022-10-28T21:20:50.855Z,37.72
2022-10-28T21:28:59.176Z,36.25
2022-10-28T21:37:04.351Z,29.73
2022-10-28T21:45:13.142Z,35.88
2022-10-28T21:53:18.475Z,36.10
2022-10-28T22:01:27.480Z,29.48
2022-10-28T22:09:35.012Z,38.03
2022-10-28T22:17:45.409Z,38.42
2022-10-28T22:25:50.624Z,43.72
2022-10-28T22:33:59.081Z,36.88
2022-10-28T22:42:04.620Z,38.22
2022-10-28T22:50:13.108Z,37.00
2022-10-28T22:58:19.182Z,27.40
2022-10-28T23:06:28.868Z,23.52
2022-10-28T23:14:34.088Z,25.90
2022-10-28T23:22:41.926Z,26.65
2022-10-28T23:30:47.249Z,24.98
2022-10-28T23:38:59.371Z,30.48
